METAR Data
IDs: Format: Raw Decoded Include TAF

Data at: 2116 UTC 18 Sep 2018

KBUY 182054Z AUTO 29007KT 10SM CLR 30/19 A2986 RMK AO2 SLP104 T03000194 56006
KBUY 181954Z AUTO 31006KT 10SM FEW100 28/19 A2987 RMK AO2 SLP105 T02830189
KBUY 181854Z AUTO 31008KT 250V340 10SM BKN065 29/19 A2987 RMK AO2 SLP107 T02940189
KBUY 181754Z AUTO 28011G18KT 10SM FEW040 BKN055 BKN100 30/20 A2988 RMK AO2 SLP111 T03000200 10300 20233 58006
KBUY 181654Z AUTO 26012G20KT 10SM CLR 28/20 A2990 RMK AO2 SLP116 T02780200
KBUY 181554Z AUTO 25010KT 10SM CLR 29/21 A2989 RMK AO2 SLP115 T02890206
KBUY 181454Z AUTO 25009KT 10SM BKN110 27/21 A2990 RMK AO2 SLP117 T02670206 53004
KBUY 181354Z AUTO 23007KT 10SM CLR 26/21 A2990 RMK AO2 SLP117 T02560206
KBUY 181254Z AUTO 22005KT 10SM CLR 24/21 A2989 RMK AO2 SLP114 T02440206
KBUY 181154Z AUTO 22007KT 10SM CLR 23/21 A2989 RMK AO2 SLP114 70062 T02330211 10244 20228 51003
KBUY 181054Z AUTO 23006KT 10SM CLR 23/21 A2989 RMK AO2 SLP114 T02280211
KBUY 180954Z AUTO 22007KT 10SM CLR 23/22 A2989 RMK AO2 SLP113 T02330222
KBUY 180854Z AUTO 21005KT 10SM FEW005 SCT075 23/22 A2988 RMK AO2 SLP110 T02330222 56003
KBUY 180804Z AUTO 20006KT 10SM SCT006 23/22 A2988 RMK AO2 T02330222
KBUY 180754Z AUTO 19005KT 10SM BKN006 BKN012 23/22 A2988 RMK AO2 CIG 004V008 SLP110 T02330222
KBUY 180735Z AUTO 20005KT 10SM SCT007 BKN013 24/22 A2988 RMK AO2 T02390222
KBUY 180728Z AUTO 20004KT 10SM SCT007 SCT013 24/23 A2988 RMK AO2 T02390228
KBUY 180654Z AUTO 19007KT 10SM OVC007 24/23 A2988 RMK AO2 SLP113 T02440228
KBUY 180554Z AUTO 20007KT 10SM OVC008 24/23 A2989 RMK AO2 SLP113 T02440228 10256 20244 58001
KBUY 180454Z AUTO 18004KT 10SM OVC008 24/23 A2989 RMK AO2 CIG 006V011 SLP113 T02440233 403060228
KBUY 180354Z AUTO 18004KT 10SM BKN009 24/23 A2989 RMK AO2 CIG 007V012 SLP115 T02440233 TSNO
KBUY 180254Z AUTO 18004KT 10SM CLR 25/23 A2989 RMK AO2 SLP114 T02500233 50007 TSNO
KBUY 180154Z AUTO 18006KT 10SM CLR 25/23 A2990 RMK AO2 SLP118 T02500233
KBUY 180054Z AUTO 17004KT 10SM CLR 26/23 A2989 RMK AO2 SLP116 T02560233
KBUY 172354Z AUTO 00000KT 10SM FEW042 26/24 A2987 RMK AO2 SLP107 60045 T02560239 10306 20256 58000
KBUY 172254Z AUTO 00000KT 10SM FEW034 26/24 A2987 RMK AO2 RAE07 SLP107 P0000 T02610244
KBUY 172154Z AUTO 14006KT 10SM -RA FEW023 SCT055 BKN075 27/25 A2988 RMK AO2 LTG DSNT SE RAE05B26 TSB25E53 SLP110 P0028 T02670250
KBUY 172131Z AUTO 14009G17KT 10SM TSRA FEW025 BKN035 BKN060 27/24 A2988 RMK AO2 LTG DSNT SE AND S RAE05B26 TSB25 P0010 T02720244
KBUY 172118Z AUTO 14007KT 10SM SCT026 BKN033 28/25 A2986 RMK AO2 LTG DSNT S RAE05 P0000 T02780250
KBUY 172054Z AUTO 00000KT 10SM RA BKN027 BKN035 OVC060 28/25 A2987 RMK AO2 LTG DSNT S RAB29 TSE1955 SLP108 P0004 60017 T02830250 56016
KBUY 172008Z AUTO VRB04KT 10SM FEW041 SCT050 29/24 A2986 RMK AO2 LTG DSNT NE AND E TSE1955 T02940244
KBUY 172001Z AUTO 20004KT 10SM VCTS FEW038 SCT048 29/24 A2987 RMK AO2 LTG DSNT NE AND E TSE1955 T02890239
KBUY 171954Z AUTO VRB03KT 10SM TS FEW038 SCT048 29/23 A2987 RMK AO2 LTG DSNT NE AND E RAE09 TSB05E20B29 SLP107 P0000 T02890233
KBUY 171935Z AUTO 15005KT 10SM TS SCT047 28/23 A2988 RMK AO2 LTG DSNT NE RAE09 TSB05E20B29 P0000 T02780233
KBUY 171926Z AUTO 14005KT 10SM VCTS SCT047 28/23 A2989 RMK AO2 LTG DSNT NE RAE09 TSB05E20 P0000 T02780233
KBUY 171911Z AUTO 15006KT 10SM TS FEW028 SCT048 SCT085 28/24 A2989 RMK AO2 LTG DSNT NE RAE09 TSB05 P0000 T02780239
KBUY 171854Z AUTO 16007KT 10SM -RA SCT028 BKN048 OVC085 27/24 A2990 RMK AO2 RAB18 SLP118 P0013 T02670239
KBUY 171754Z AUTO 16008G17KT 10SM FEW028 SCT050 29/23 A2992 RMK AO2 RAB11E22 SLP123 P0000 60017 T02940233 10300 20233 58011
KBUY 171704Z AUTO 16006G15KT 10SM SCT021 BKN032 BKN041 29/24 A2993 RMK AO2 T02940239
KBUY 171654Z AUTO 18009G16KT 10SM SCT019 BKN027 BKN035 29/24 A2993 RMK AO2 SLP128 T02940239
KBUY 171650Z AUTO 17009G16KT 10SM SCT019 BKN025 BKN033 29/24 A2994 RMK AO2
KBUY 171611Z AUTO 18011G20KT 10SM SCT019 BKN044 29/24 A2995 RMK AO2 T02890239
KBUY 171554Z AUTO 18009G21KT 10SM BKN017 29/24 A2995 RMK AO2 RAB29E43 SLP134 P0000 T02890239
KBUY 171537Z AUTO 19008KT 10SM -RA BKN016 BKN020 OVC029 28/24 A2995 RMK AO2 RAB29 P0000 T02780244
KBUY 171454Z AUTO 18008G15KT 10SM BKN014 BKN023 OVC044 27/24 A2995 RMK AO2 SLP136 60017 T02720244 53001
KBUY 171354Z AUTO 18006KT 10SM SCT006 OVC013 25/23 A2995 RMK AO2 RAE40 SLP133 P0001 T02500233
KBUY 171307Z AUTO 13003KT 10SM -RA BKN009 BKN016 OVC024 23/22 A2994 RMK AO2 LTG DSNT E CIG 007V014 P0000 T02330222
KBUY 171259Z AUTO 00000KT 10SM -RA SCT009 BKN013 OVC026 23/22 A2994 RMK AO2 LTG DSNT E P0000 T02330222
KBUY 171254Z AUTO 00000KT 10SM -RA SCT011 BKN017 OVC025 23/22 A2994 RMK AO2 LTG DSNT NE AND E SLP132 P0016 T02330222
KBUY 171234Z AUTO 00000KT 10SM RA FEW013 BKN027 OVC080 23/22 A2995 RMK AO2 LTG DSNT E P0013 T02330222
KBUY 171217Z AUTO 00000KT 10SM -RA SCT014 BKN035 OVC090 23/22 A2995 RMK AO2 LTG DSNT S P0000 T02330222
KBUY 171210Z AUTO 00000KT 10SM -RA FEW009 BKN016 OVC050 23/22 A2995 RMK AO2 LTG DSNT S P0000 T02330222
KBUY 171203Z AUTO 11003KT 10SM -RA BKN012 BKN018 23/22 A2995 RMK AO2 LTG DSNT E AND S P0000 T02330222
KBUY 171154Z AUTO 12003KT 10SM -RA FEW010 BKN016 OVC036 23/22 A2995 RMK AO2 LTG DSNT E AND SE SLP134 P0042 60153 70384 T02330222 10239 20228 52007
KBUY 171123Z AUTO 19004KT 10SM +RA FEW023 BKN027 OVC037 23/22 A2994 RMK AO2 LTG DSNT E AND SE P0018 T02330222
KBUY 171054Z AUTO 15006KT 10SM +RA FEW017 BKN038 OVC120 23/22 A2994 RMK AO2 LTG DSNT E AND SE RAE30B46 SLP133 P0021 T02280222
KBUY 171013Z AUTO 10005KT 10SM RA FEW006 BKN034 OVC050 23/22 A2993 RMK AO2 LTG DSNT E-S P0007 T02280217
KBUY 171003Z AUTO 13004KT 10SM RA SCT006 BKN024 OVC038 23/22 A2994 RMK AO2 LTG DSNT E AND S P0003 T02280217
KBUY 170954Z AUTO 12005KT 10SM VCTS +RA SCT006 BKN013 OVC023 23/22 A2993 RMK AO2 LTG DSNT E AND S TSB24E39 SLP130 P0052 T02280217
KBUY 170948Z AUTO 13006KT 10SM VCTS -RA BKN008 OVC015 23/22 A2994 RMK AO2 LTG DSNT SE AND S TSB24E39 P0046
KBUY 170939Z AUTO 11005KT 10SM +RA SCT005 BKN010 OVC015 23/22 A2993 RMK AO2 LTG DSNT E-S TSB24E39 P0045 T02280217
KBUY 170933Z AUTO 14005KT 10SM +TSRA BKN005 OVC010 23/22 A2993 RMK AO2 LTG DSNT E-S TSB24 P0036 T02280217
KBUY 170924Z AUTO 11005KT 10SM +TSRA SCT005 BKN008 OVC031 23/22 A2993 RMK AO2 LTG DSNT E AND S TSB24 P0011 T02280217